Sant Martí Sacalm





Hora UTC 16:25
Temperatura 20.9 ºC
Humitat 78.5 %
Pressió 1019.6 hPa
Pluja 0.0 mm
Velocitat vent 6.1 km/h
Direcció vent ESE
Radiació solar 209.4 W/m²

Dades diàries 2019-09-20



Hora UTC (hivern +1h; estiu +2h)
Temperatura (ºC) Humitat (%) Pressió (hPa) Velocitat vent (km/h) Precipitació (mm) Radiació solar (W/m²)
Hora UTC Aire Humitat Pressió Vel. Dir. Vel. Max Dir. Intent. màx 5 min. Rad. Sol.
00:05 17.9 66.4 1020.3 6.3 NNE 6.3 NNE 0.0 0.1
00:10 18.1 65.1 1020.3 6.4 NNE 7.4 NNE 0.0 0.1
00:15 17.8 68.1 1020.3 6.9 NE 8.8 NE 0.0 0.1
00:20 17.4 69.5 1020.3 7.7 NE 10.3 NE 0.0 0.1
00:25 17.3 68.6 1020.2 8.4 NE 12.4 NNE 0.0 0.1
00:30 17.5 67.3 1020.2 8.6 NNE 13.4 NNE 0.0 0.1
00:35 17.7 65.1 1020.2 7.4 NNE 13.1 NNE 0.0 0.1
00:40 18.1 62.5 1020.2 7.4 N 9.9 NNE 0.0 0.1
00:45 18.2 61.8 1020.3 7.2 N 9.5 NNE 0.0 0.1
00:50 18.4 62.1 1020.2 7.7 NNE 11.0 NNE 0.0 0.1
00:55 18.2 63.9 1020.2 7.6 NNE 10.3 NNE 0.0 0.1
01:00 17.9 65.7 1020.2 8.5 NNE 11.7 NNE 0.0 0.1
01:05 17.8 67.5 1020.2 8.7 NNE 12.4 NNE 0.0 0.1
01:10 17.7 69.8 1020.1 8.6 NNE 15.2 NNE 0.0 0.1
01:15 17.8 70.7 1020.1 8.7 NNE 14.5 NNE 0.0 0.1
01:20 17.8 71.9 1020.1 9.7 NE 14.5 NE 0.0 0.1
01:25 17.6 72.8 1020.1 8.4 NE 14.1 NE 0.0 0.1
01:30 17.6 72.0 1020.1 9.5 NNE 15.2 NNE 0.0 0.1
01:35 17.5 72.6 1020.2 10.2 NNE 17.7 NE 0.0 0.1
01:40 17.3 74.0 1020.2 10.4 NE 15.5 NE 0.0 0.1
01:45 17.1 74.8 1020.1 10.6 NNE 17.7 NNE 0.0 0.1
01:50 17.1 75.6 1020.2 10.0 NNE 15.9 NNE 0.0 0.1
01:55 17.0 77.3 1020.1 13.5 NNE 21.5 NNE 0.0 0.1
02:00 17.0 79.2 1020.1 12.5 NNE 20.5 NNE 0.0 0.1
02:05 16.9 80.0 1020.1 11.3 NNE 19.1 NNE 0.0 0.1
02:10 16.8 81.2 1020.1 9.2 NNE 15.5 NNE 0.0 0.1
02:15 16.7 82.3 1020.1 13.8 NNE 22.6 NNE 0.0 0.1
02:20 16.8 82.4 1020.1 11.5 NNE 18.7 N 0.0 0.1
02:25 16.7 83.6 1020.1 11.5 NNE 17.7 NNE 0.0 0.1
02:30 16.7 83.7 1020.1 11.5 NNE 19.4 NNE 0.0 0.1
02:35 16.8 83.3 1020.0 12.5 NNE 20.1 NNE 0.0 0.1
02:40 16.7 83.7 1020.1 11.8 NNE 21.5 NNE 0.0 0.1
02:45 16.6 84.3 1020.0 10.5 NNE 15.5 NE 0.0 0.1
02:50 16.4 84.5 1020.0 11.8 NNE 16.2 NNE 0.0 0.1
02:55 16.4 84.2 1020.0 11.5 NNE 15.9 NNE 0.0 0.1
03:00 16.4 84.0 1020.0 10.4 NNE 15.9 NNE 0.0 0.1
03:05 16.2 84.2 1019.9 9.9 NNE 14.5 NNE 0.0 0.1
03:10 16.2 84.3 1019.9 10.0 NNE 16.2 N 0.0 0.1
03:15 16.1 84.5 1019.8 9.7 NNE 15.5 NNE 0.0 0.1
03:20 16.0 84.8 1019.8 12.1 NNE 17.0 NNE 0.0 0.1
03:25 16.2 84.0 1019.7 13.0 NNE 17.3 NNE 0.0 0.1
03:30 16.2 84.1 1019.7 13.6 NNE 19.8 NNE 0.0 0.1
03:35 16.2 83.9 1019.7 12.9 NNE 20.5 NNE 0.0 0.1
03:40 16.2 84.3 1019.8 9.0 NE 13.8 NE 0.0 0.1
03:45 16.1 84.3 1019.8 8.9 NE 12.7 NE 0.0 0.1
03:50 16.2 83.6 1019.8 8.4 NE 11.3 NE 0.0 0.1
03:55 16.2 83.5 1019.8 7.6 NE 9.9 NE 0.0 0.1
04:00 16.3 83.1 1019.8 6.9 NE 9.5 NE 0.0 0.1
04:05 16.4 82.3 1019.8 6.6 NE 8.8 ENE 0.0 0.1
04:10 16.4 81.7 1019.8 6.0 ENE 7.4 NE 0.0 0.1
04:15 16.4 81.2 1019.8 5.0 ENE 6.4 ENE 0.0 0.1
04:20 16.4 82.1 1019.8 4.2 ENE 5.7 ENE 0.0 0.1
04:25 16.5 80.6 1019.8 3.2 NE 3.9 NNE 0.0 0.1
04:30 16.6 80.2 1019.7 2.3 NE 5.7 N 0.0 0.1
04:35 16.8 79.7 1019.7 5.7 NNE 8.5 NE 0.0 0.1
04:40 16.6 80.4 1019.7 6.1 NE 8.5 NE 0.0 0.1
04:45 16.5 80.5 1019.8 6.3 NE 8.5 NE 0.0 0.1
04:50 16.5 80.0 1019.8 5.6 NE 7.8 ENE 0.0 0.1
04:55 16.6 79.4 1019.8 3.2 NE 5.0 NE 0.0 0.1
05:00 16.7 79.0 1019.8 1.3 NE 2.8 NNE 0.0 0.1
05:05 16.7 77.6 1019.8 0.0 NNE 0.0 NNE 0.0 0.1
05:10 17.0 75.2 1019.8 1.0 NNE 3.2 NNE 0.0 0.1
05:15 17.2 73.3 1019.8 0.0 NNE 0.0 ENE 0.0 0.1
05:20 17.2 73.4 1019.9 0.2 NE 2.1 NE 0.0 0.3
05:25 17.2 73.9 1019.9 0.5 NE 2.1 NE 0.0 0.8
05:30 17.2 74.5 1019.9 1.7 NE 3.5 NE 0.0 1.8
05:35 17.0 76.4 1019.9 2.1 ENE 3.9 ENE 0.0 3.8
05:40 16.8 77.7 1019.9 3.1 E 3.9 E 0.0 7.6
05:45 16.7 78.5 1020.0 3.3 E 3.9 E 0.0 13.2
05:50 16.8 77.4 1020.0 3.3 NE 3.9 ENE 0.0 18.5
05:55 16.9 76.5 1020.0 2.8 ENE 3.9 NE 0.0 23.0
06:00 16.8 77.2 1020.1 2.4 ENE 3.2 ENE 0.0 23.8
06:05 16.7 77.8 1020.1 2.6 ENE 3.9 NE 0.0 24.8
06:10 16.8 77.8 1020.0 4.3 NNE 5.3 NNE 0.0 27.8
06:15 16.8 78.4 1020.0 4.9 NE 6.7 ENE 0.0 32.4
06:20 16.7 78.5 1020.0 4.9 NE 6.4 NNE 0.0 34.7
06:25 16.7 78.7 1020.1 3.7 ENE 5.0 ENE 0.0 39.5
06:30 16.6 78.9 1020.2 3.1 ENE 3.5 ENE 0.0 47.7
06:35 16.6 78.6 1020.3 2.6 ENE 3.5 ENE 0.0 68.3
06:40 16.8 78.2 1020.3 2.4 ENE 3.2 ENE 0.0 138.6
06:45 17.0 78.3 1020.3 2.8 NE 5.0 NE 0.0 118.2
06:50 17.2 78.0 1020.4 5.2 ENE 7.8 ENE 0.0 157.8
06:55 17.3 77.6 1020.4 5.4 NE 7.8 NE 0.0 100.3
07:00 17.2 78.1 1020.4 4.7 NE 7.8 NE 0.0 67.3
07:05 16.9 79.5 1020.5 3.0 NE 5.0 NNE 0.0 71.2
07:10 16.8 80.3 1020.5 3.1 NE 3.9 NE 0.0 114.5
07:15 16.9 80.6 1020.6 3.7 NE 7.8 NE 0.0 252.0
07:20 17.3 78.8 1020.6 6.0 NE 8.8 NE 0.0 270.8
07:25 17.3 78.6 1020.7 6.6 NE 9.5 NNE 0.0 288.2
07:30 17.3 78.6 1020.7 5.6 NE 8.5 NE 0.0 303.0
07:35 17.6 77.7 1020.8 6.0 NE 8.1 NE 0.0 319.6
07:40 18.0 76.3 1020.9 4.4 ENE 6.7 E 0.0 330.9
07:45 18.4 74.8 1021.0 4.2 NE 7.1 E 0.0 350.2
07:50 18.7 72.5 1021.1 3.4 NE 5.7 ENE 0.0 369.1
07:55 18.8 72.1 1021.1 2.9 NE 6.0 NE 0.0 387.8
08:00 18.7 71.3 1021.1 3.1 NNE 9.2 NNE 0.0 404.9
08:05 18.6 70.4 1021.2 5.7 NNE 9.5 NE 0.0 420.0
08:10 18.8 71.8 1021.2 4.3 NE 8.1 NNE 0.0 435.3
08:15 18.9 70.4 1021.3 5.3 NNE 8.5 NNE 0.0 446.5
08:20 18.9 70.9 1021.3 6.1 NNE 10.3 NNE 0.0 461.1
08:25 18.9 71.9 1021.3 6.1 NNE 10.6 NNE 0.0 476.5
08:30 18.8 71.6 1021.3 6.9 NNE 11.3 NNE 0.0 489.0
08:35 18.8 72.1 1021.4 6.8 NNE 10.6 ENE 0.0 503.3
08:40 18.7 75.6 1021.4 8.1 NNE 11.7 NE 0.0 518.4
08:45 18.8 74.8 1021.3 8.2 NNE 11.7 NNE 0.0 528.6
08:50 18.9 76.3 1021.4 7.7 NNE 11.7 NNE 0.0 497.4
08:55 18.9 75.5 1021.4 6.3 NE 12.4 NNE 0.0 538.5
09:00 18.9 75.8 1021.4 6.5 NNE 10.6 NNE 0.0 505.2
09:05 18.7 76.8 1021.4 7.0 NNE 11.0 NNE 0.0 420.9
09:10 18.5 78.5 1021.5 6.2 NNE 11.0 N 0.0 509.4
09:15 18.7 79.5 1021.5 7.0 NNE 11.3 NE 0.0 577.3
09:20 18.8 77.3 1021.5 7.5 NNE 13.1 NE 0.0 591.9
09:25 18.9 75.7 1021.5 7.3 NNE 11.7 NNE 0.0 434.0
09:30 18.8 74.9 1021.5 7.8 NNE 11.3 NNE 0.0 497.8
09:35 18.8 73.1 1021.5 8.4 NE 12.4 NE 0.0 569.8
09:40 19.0 68.7 1021.5 8.6 NE 12.7 NE 0.0 560.8
09:45 19.0 71.0 1021.5 7.9 NE 12.4 NNE 0.0 548.2
09:50 19.0 67.5 1021.5 7.6 NNE 12.0 NNE 0.0 557.4
09:55 19.1 68.9 1021.5 8.1 NNE 12.4 NNE 0.0 660.7
10:00 19.3 66.8 1021.5 8.6 NNE 13.1 NNE 0.0 680.8
10:05 19.4 67.6 1021.5 7.6 NNE 12.0 NNE 0.0 692.5
10:10 19.5 68.9 1021.4 8.0 NNE 11.3 NNE 0.0 704.5
10:15 19.5 69.0 1021.4 7.6 NNE 12.7 NNE 0.0 714.9
10:20 19.7 68.8 1021.4 7.6 NNE 13.8 NE 0.0 703.9
10:25 19.9 68.9 1021.4 8.7 NNE 12.4 NNE 0.0 567.8
10:30 19.9 69.2 1021.4 9.8 NNE 14.1 NNE 0.0 661.0
10:35 19.9 70.5 1021.4 9.4 NNE 16.2 NE 0.0 705.3
10:40 20.0 70.8 1021.4 9.3 NNE 15.5 NNE 0.0 738.0
10:45 20.1 71.1 1021.3 9.3 NNE 15.9 NNE 0.0 709.4
10:50 19.9 70.5 1021.3 11.2 NNE 17.7 NNE 0.0 510.6
10:55 19.9 71.8 1021.3 9.8 NNE 15.2 NNE 0.0 783.1
11:00 20.0 70.3 1021.2 12.2 NNE 20.8 NNE 0.0 729.3
11:05 20.2 70.4 1021.1 10.6 NE 17.3 NNE 0.0 764.6
11:10 20.3 70.9 1021.1 10.5 NNE 18.7 NE 0.0 769.8
11:15 20.2 70.0 1021.1 12.4 NE 21.5 NNE 0.0 660.4
11:20 20.4 67.9 1021.1 11.1 NE 18.0 ENE 0.0 726.3
11:25 20.6 67.6 1021.1 7.9 NNE 14.5 NE 0.0 775.4
11:30 20.7 66.8 1021.1 8.7 NNE 17.7 NE 0.0 774.9
11:35 20.8 66.3 1021.0 10.2 NE 20.1 NE 0.0 773.6
11:40 20.8 66.4 1020.9 9.3 NE 17.3 NE 0.0 532.0
11:45 21.0 66.4 1020.9 5.9 ENE 12.0 E 0.0 369.1
11:50 21.1 64.4 1020.9 5.7 NNE 13.1 ENE 0.0 626.4
11:55 21.3 63.1 1020.9 5.5 E 12.7 NNE 0.0 751.0
12:00 21.4 62.1 1020.8 4.5 WNW 9.9 W 0.0 757.7
12:05 21.6 61.6 1020.8 2.7 SSW 8.5 W 0.0 758.7
12:10 22.2 61.7 1020.8 5.3 SE 11.7 SSE 0.0 755.9
12:15 22.2 60.1 1020.7 3.8 SSW 13.4 SW 0.0 747.6
12:20 22.1 61.7 1020.7 4.2 SSE 9.2 SSE 0.0 744.2
12:25 22.1 60.0 1020.6 4.8 SSE 11.3 ESE 0.0 745.5
12:30 22.4 59.7 1020.6 4.2 SE 12.7 SE 0.0 720.8
12:35 22.7 59.6 1020.6 3.4 SE 6.7 E 0.0 734.6
12:40 22.5 58.7 1020.5 6.0 S 15.2 SSE 0.0 741.4
12:45 22.4 59.0 1020.5 6.6 SSE 15.2 SSE 0.0 730.9
12:50 22.2 59.8 1020.5 4.1 NW 8.8 NNE 0.0 726.1
12:55 22.0 59.5 1020.4 5.7 SW 12.0 SW 0.0 715.8
13:00 22.1 60.3 1020.4 6.9 WSW 14.5 WSW 0.0 710.4
13:05 21.8 60.1 1020.4 4.6 W 9.2 W 0.0 713.4
13:10 22.0 60.4 1020.4 5.6 SSW 12.7 SW 0.0 700.0
13:15 22.3 59.3 1020.3 3.9 SW 12.4 S 0.0 691.7
13:20 22.1 59.8 1020.3 3.6 WNW 9.9 S 0.0 682.1
13:25 22.6 58.2 1020.3 3.8 SSW 11.3 SSW 0.0 689.1
13:30 22.4 58.4 1020.3 4.3 NW 8.8 NW 0.0 675.1
13:35 22.3 59.8 1020.2 6.8 SSE 14.1 S 0.0 662.3
13:40 22.7 59.3 1020.1 5.0 WNW 13.1 W 0.0 654.2
13:45 22.4 59.8 1020.1 6.9 SSW 17.0 WSW 0.0 643.5
13:50 22.7 59.6 1020.1 4.8 S 11.7 SE 0.0 627.0
13:55 22.6 60.8 1020.0 5.5 SW 12.0 SW 0.0 619.1
14:00 22.7 60.2 1020.1 5.8 SSW 12.7 WSW 0.0 597.5
14:05 22.4 60.2 1020.1 4.4 W 8.8 W 0.0 491.4
14:10 22.5 61.0 1020.1 4.9 S 9.2 ESE 0.0 601.7
14:15 22.8 59.9 1020.0 8.1 E 17.3 ESE 0.0 594.1
14:20 22.8 61.0 1019.9 3.0 W 8.8 W 0.0 503.2
14:25 22.9 59.6 1019.9 3.8 WNW 11.0 NNE 0.0 592.7
14:30 22.7 61.7 1019.8 6.3 NE 14.1 NNE 0.0 610.1
14:35 22.6 62.2 1019.8 4.9 NNE 12.4 NNW 0.0 588.6
14:40 22.9 62.0 1019.8 3.0 WNW 8.1 SSE 0.0 556.7
14:45 22.5 62.7 1019.7 5.3 WNW 12.0 WSW 0.0 520.1
14:50 22.3 64.9 1019.6 3.9 NNW 11.7 SW 0.0 507.2
14:55 22.5 63.4 1019.5 7.8 ESE 16.2 NE 0.0 505.8
15:00 22.6 64.1 1019.5 7.5 NE 14.5 WNW 0.0 527.8
15:05 22.1 67.5 1019.4 7.5 NNE 15.5 NW 0.0 546.7
15:10 22.6 66.5 1019.4 5.7 ENE 13.8 ENE 0.0 531.3
15:15 22.6 67.3 1019.4 11.9 ENE 21.9 E 0.0 514.1
15:20 22.1 69.3 1019.4 7.8 NNE 14.8 NE 0.0 511.6
15:25 22.1 70.4 1019.3 10.4 ENE 17.7 ESE 0.0 512.7
15:30 22.0 71.3 1019.3 9.7 ENE 21.9 E 0.0 503.8
15:35 21.8 71.8 1019.3 7.7 NE 16.6 NNE 0.0 482.5
15:40 21.6 72.5 1019.4 16.1 NE 25.8 ENE 0.0 490.0
15:45 21.7 73.8 1019.4 10.5 ENE 21.5 NNE 0.0 445.3
15:50 22.1 72.8 1019.4 7.0 E 15.9 E 0.0 410.0
15:55 22.2 72.3 1019.4 10.3 E 24.7 ESE 0.0 324.8
16:00 21.5 74.1 1019.4 13.2 ENE 20.8 ENE 0.0 333.6
16:05 21.2 76.3 1019.4 14.7 E 26.5 ENE 0.0 270.3
16:10 21.1 77.0 1019.5 12.3 E 17.0 E 0.0 260.7
16:15 21.1 77.5 1019.5 8.7 ESE 19.1 E 0.0 245.5
16:20 21.2 77.0 1019.5 9.6 ESE 17.7 E 0.0 243.5
16:25 20.9 78.5 1019.6 6.1 ESE 12.7 NE 0.0 209.4
Màxima 23.1 84.8 1021.5 16.1 NE 26.5 ENE 0.0 783.1
Mínima 16.0 58.2 1019.3
Total 0.0